createdAt,value
2022-08-25T00:00:12.308Z,99.90
2022-08-25T00:02:39.297Z,99.90
2022-08-25T00:05:07.760Z,99.90
2022-08-25T00:07:36.419Z,99.90
2022-08-25T00:10:06.719Z,99.90
2022-08-25T00:12:34.063Z,99.90
2022-08-25T00:15:01.025Z,99.90
2022-08-25T00:17:28.152Z,99.90
2022-08-25T00:19:55.590Z,99.90
2022-08-25T00:22:22.575Z,99.90
2022-08-25T00:24:49.526Z,99.90
2022-08-25T00:27:17.098Z,99.90
2022-08-25T00:29:44.032Z,99.90
2022-08-25T00:32:10.971Z,99.90
2022-08-25T00:34:39.513Z,99.90
2022-08-25T00:37:09.460Z,99.90
2022-08-25T00:39:38.705Z,99.90
2022-08-25T00:42:11.810Z,99.90
2022-08-25T00:44:43.958Z,99.90
2022-08-25T00:47:11.430Z,99.90
2022-08-25T00:49:56.922Z,99.90
2022-08-25T00:52:36.369Z,99.90
2022-08-25T00:55:30.427Z,99.90
2022-08-25T00:58:01.343Z,99.90
2022-08-25T01:00:38.304Z,99.90
2022-08-25T01:03:06.474Z,99.90
2022-08-25T01:05:34.134Z,99.90
2022-08-25T01:08:03.318Z,99.90
2022-08-25T01:10:37.194Z,99.90
2022-08-25T01:13:25.700Z,99.90
2022-08-25T01:15:56.418Z,99.90
2022-08-25T01:18:24.104Z,99.90
2022-08-25T01:20:57.044Z,99.90
2022-08-25T01:23:25.230Z,99.90
2022-08-25T01:26:09.248Z,99.90
2022-08-25T01:28:37.844Z,99.90
2022-08-25T01:31:05.425Z,99.90
2022-08-25T01:33:51.326Z,99.90
2022-08-25T01:36:20.795Z,99.90
2022-08-25T01:38:48.147Z,99.90
2022-08-25T01:41:31.879Z,99.90
2022-08-25T01:43:59.502Z,99.90
2022-08-25T01:46:27.406Z,99.90
2022-08-25T01:48:54.417Z,99.90
2022-08-25T01:51:25.740Z,99.90
2022-08-25T01:53:52.799Z,99.90
2022-08-25T01:56:20.858Z,99.90
2022-08-25T01:58:49.895Z,99.90
2022-08-25T02:01:21.646Z,99.90
2022-08-25T02:03:52.138Z,99.90
2022-08-25T02:06:29.903Z,99.90
2022-08-25T02:09:01.921Z,99.90
2022-08-25T02:11:29.473Z,99.90
2022-08-25T02:13:56.636Z,99.90
2022-08-25T02:16:33.880Z,99.90
2022-08-25T02:19:01.929Z,99.90
2022-08-25T02:21:29.617Z,99.90
2022-08-25T02:23:57.032Z,99.90
2022-08-25T02:26:24.110Z,99.90
2022-08-25T02:28:52.674Z,99.90
2022-08-25T02:31:23.550Z,99.90
2022-08-25T02:33:52.391Z,99.90
2022-08-25T02:36:20.676Z,99.90
2022-08-25T02:38:48.673Z,99.90
2022-08-25T02:41:21.599Z,99.90
2022-08-25T02:43:52.346Z,99.90
2022-08-25T02:46:22.346Z,99.90
2022-08-25T02:48:49.381Z,99.90
2022-08-25T02:51:16.704Z,99.90
2022-08-25T02:53:46.037Z,99.90
2022-08-25T02:56:14.797Z,99.90
2022-08-25T02:58:42.338Z,99.90
2022-08-25T03:01:13.157Z,99.90
2022-08-25T03:03:42.184Z,99.90
2022-08-25T03:06:17.795Z,99.90
2022-08-25T03:08:45.465Z,99.90
2022-08-25T03:11:13.063Z,99.90
2022-08-25T03:13:40.761Z,99.90
2022-08-25T03:16:10.959Z,99.90
2022-08-25T03:18:41.266Z,99.90
2022-08-25T03:21:11.401Z,99.90
2022-08-25T03:23:39.885Z,99.90
2022-08-25T03:26:25.725Z,99.90
2022-08-25T03:28:55.370Z,99.90
2022-08-25T03:31:26.151Z,99.90
2022-08-25T03:33:53.794Z,99.90
2022-08-25T03:36:20.790Z,99.90
2022-08-25T03:38:47.744Z,99.90
2022-08-25T03:41:25.638Z,99.90
2022-08-25T03:43:56.806Z,99.90
2022-08-25T03:46:35.119Z,99.90
2022-08-25T03:49:05.075Z,99.90
2022-08-25T03:51:36.771Z,99.90
2022-08-25T03:54:05.120Z,99.90
2022-08-25T03:56:32.464Z,99.90
2022-08-25T03:58:59.751Z,99.90
2022-08-25T04:01:27.599Z,99.90
2022-08-25T04:03:55.048Z,99.90
2022-08-25T04:06:25.907Z,99.90
2022-08-25T04:08:52.938Z,99.90
2022-08-25T04:11:23.722Z,99.90
2022-08-25T04:13:52.919Z,99.90
2022-08-25T04:16:24.662Z,99.90
2022-08-25T04:18:56.108Z,99.90
2022-08-25T04:21:24.708Z,99.90
2022-08-25T04:23:53.676Z,99.90
2022-08-25T04:26:27.144Z,99.90
2022-08-25T04:28:55.047Z,99.90
2022-08-25T04:31:22.583Z,99.90
2022-08-25T04:33:50.112Z,99.90
2022-08-25T04:36:19.435Z,99.90
2022-08-25T04:38:47.930Z,99.90
2022-08-25T04:41:19.328Z,99.90
2022-08-25T04:43:46.706Z,99.90
2022-08-25T04:46:20.339Z,99.90
2022-08-25T04:48:49.239Z,99.90
2022-08-25T04:51:19.842Z,99.90
2022-08-25T04:53:46.902Z,99.90
2022-08-25T04:56:19.813Z,99.90
2022-08-25T04:58:47.187Z,99.90
2022-08-25T05:01:19.920Z,99.90
2022-08-25T05:03:52.406Z,99.90
2022-08-25T05:06:19.292Z,99.90
2022-08-25T05:08:46.337Z,99.90
2022-08-25T05:11:17.314Z,99.90
2022-08-25T05:13:51.517Z,99.90
2022-08-25T05:16:22.244Z,99.90
2022-08-25T05:18:50.638Z,99.90
2022-08-25T05:21:22.614Z,99.90
2022-08-25T05:23:50.354Z,99.90
2022-08-25T05:26:21.097Z,99.90
2022-08-25T05:28:50.899Z,99.90
2022-08-25T05:31:20.007Z,99.90
2022-08-25T05:33:47.375Z,99.90
2022-08-25T05:36:17.342Z,99.90
2022-08-25T05:38:44.517Z,99.90
2022-08-25T05:41:16.356Z,99.90
2022-08-25T05:43:45.861Z,99.90
2022-08-25T05:46:13.935Z,99.90
2022-08-25T05:48:41.029Z,99.90
2022-08-25T05:51:10.325Z,99.90
2022-08-25T05:53:41.638Z,99.90
2022-08-25T05:56:09.899Z,99.90
2022-08-25T05:58:37.678Z,99.90
2022-08-25T06:01:24.123Z,99.90
2022-08-25T06:03:54.919Z,99.90
2022-08-25T06:06:24.360Z,99.90
2022-08-25T06:08:51.638Z,99.90
2022-08-25T06:11:19.366Z,99.90
2022-08-25T06:13:46.620Z,99.90
2022-08-25T06:16:13.624Z,99.90
2022-08-25T06:18:40.605Z,99.90
2022-08-25T06:21:14.419Z,99.90
2022-08-25T06:23:41.630Z,99.90
2022-08-25T06:26:13.165Z,99.90
2022-08-25T06:28:49.063Z,99.90
2022-08-25T06:31:16.117Z,99.90
2022-08-25T06:33:44.163Z,99.90
2022-08-25T06:36:11.420Z,99.90
2022-08-25T06:38:38.400Z,99.90
2022-08-25T06:41:07.272Z,99.90
2022-08-25T06:43:35.456Z,99.90
2022-08-25T06:46:31.699Z,99.90
2022-08-25T06:49:05.975Z,99.90
2022-08-25T06:51:35.904Z,99.90
2022-08-25T06:54:04.685Z,99.90
2022-08-25T06:56:31.725Z,99.90
2022-08-25T06:58:58.741Z,99.90
2022-08-25T07:01:27.119Z,99.90
2022-08-25T07:04:00.630Z,99.90
2022-08-25T07:06:31.733Z,99.90
2022-08-25T07:08:59.670Z,99.90
2022-08-25T07:11:26.648Z,99.90
2022-08-25T07:13:53.901Z,99.90
2022-08-25T07:16:21.584Z,99.90
2022-08-25T07:18:48.769Z,99.90
2022-08-25T07:21:16.933Z,99.90
2022-08-25T07:23:44.646Z,99.90
2022-08-25T07:26:36.737Z,99.90
2022-08-25T07:29:32.075Z,99.90
2022-08-25T07:32:01.580Z,99.90
2022-08-25T07:37:48.134Z,99.90
2022-08-25T07:40:23.270Z,99.90
2022-08-25T07:42:54.734Z,99.90
2022-08-25T07:45:30.694Z,99.90
2022-08-25T07:48:09.211Z,99.90
2022-08-25T07:50:41.982Z,99.90
2022-08-25T07:53:10.186Z,99.90
2022-08-25T07:55:38.050Z,99.90
2022-08-25T07:58:09.471Z,99.90
2022-08-25T08:00:42.347Z,99.90
2022-08-25T08:03:19.895Z,99.90
2022-08-25T08:05:58.054Z,99.90
2022-08-25T08:08:25.044Z,99.90
2022-08-25T08:11:09.705Z,99.90
2022-08-25T08:13:41.311Z,99.90
2022-08-25T08:16:14.293Z,99.90
2022-08-25T08:18:43.222Z,99.90
2022-08-25T08:21:26.182Z,99.90
2022-08-25T08:23:58.915Z,99.90
2022-08-25T08:26:48.239Z,99.90
2022-08-25T08:29:16.380Z,99.90
2022-08-25T08:31:48.546Z,99.90
2022-08-25T08:34:16.575Z,99.90
2022-08-25T08:36:45.259Z,99.90
2022-08-25T08:39:12.478Z,99.90
2022-08-25T08:42:12.571Z,99.90
2022-08-25T08:44:45.655Z,99.90
2022-08-25T08:47:36.241Z,99.90
2022-08-25T08:50:32.995Z,99.90
2022-08-25T08:53:52.467Z,99.90
2022-08-25T08:56:30.827Z,99.90
2022-08-25T08:59:19.108Z,99.90
2022-08-25T09:02:00.421Z,99.90
2022-08-25T09:04:40.439Z,99.90
2022-08-25T09:07:17.946Z,99.90
2022-08-25T09:09:48.611Z,99.90
2022-08-25T09:12:37.416Z,99.90
2022-08-25T09:15:18.859Z,99.90
2022-08-25T09:18:14.954Z,99.90
2022-08-25T09:21:05.037Z,99.90
2022-08-25T09:23:46.391Z,99.90
2022-08-25T09:26:36.361Z,99.90
2022-08-25T09:29:18.422Z,99.90
2022-08-25T09:31:48.683Z,99.90
2022-08-25T09:34:22.893Z,99.90
2022-08-25T09:36:52.940Z,99.90
2022-08-25T09:39:21.469Z,99.90
2022-08-25T09:42:00.237Z,99.90
2022-08-25T09:44:34.682Z,99.90
2022-08-25T09:47:14.803Z,99.90
2022-08-25T09:49:46.044Z,99.90
2022-08-25T09:52:33.142Z,99.90
2022-08-25T09:55:26.199Z,99.90
2022-08-25T09:57:56.806Z,99.90
2022-08-25T10:00:35.226Z,99.90
2022-08-25T10:03:22.620Z,99.90
2022-08-25T10:06:12.926Z,99.90
2022-08-25T10:08:43.157Z,99.90
2022-08-25T10:11:48.515Z,99.90
2022-08-25T10:14:38.684Z,99.70
2022-08-25T10:17:29.965Z,99.10
2022-08-25T10:20:24.873Z,99.20
2022-08-25T10:22:54.019Z,98.20
2022-08-25T10:25:32.309Z,98.00
2022-08-25T10:28:37.606Z,97.80
2022-08-25T10:31:24.171Z,96.90
2022-08-25T10:34:05.915Z,95.50
2022-08-25T10:36:46.969Z,94.90
2022-08-25T10:39:58.306Z,94.70
2022-08-25T10:43:12.351Z,93.80
2022-08-25T10:45:48.020Z,92.90
2022-08-25T10:48:22.510Z,93.30
2022-08-25T10:51:21.486Z,92.40
2022-08-25T10:54:34.830Z,91.90
2022-08-25T10:57:42.917Z,92.00
2022-08-25T11:00:25.840Z,91.80
2022-08-25T11:03:05.232Z,92.50
2022-08-25T11:05:54.545Z,91.60
2022-08-25T11:08:50.011Z,91.30
2022-08-25T11:11:32.456Z,91.70
2022-08-25T11:14:20.043Z,92.40
2022-08-25T11:17:02.533Z,92.20
2022-08-25T11:19:45.439Z,91.50
2022-08-25T11:22:51.408Z,92.00
2022-08-25T11:25:31.257Z,92.00
2022-08-25T11:28:14.787Z,91.60
2022-08-25T11:30:44.455Z,89.60
2022-08-25T11:33:17.242Z,90.40
2022-08-25T11:36:29.583Z,90.20
2022-08-25T11:39:08.490Z,90.80
2022-08-25T11:41:53.327Z,89.90
2022-08-25T11:44:59.146Z,91.30
2022-08-25T11:48:12.078Z,91.30
2022-08-25T11:51:07.537Z,88.70
2022-08-25T11:53:45.066Z,90.00
2022-08-25T11:56:31.766Z,90.60
2022-08-25T11:58:59.759Z,90.70
2022-08-25T12:01:43.151Z,90.20
2022-08-25T12:04:44.528Z,86.50
2022-08-25T12:07:20.244Z,83.70
2022-08-25T12:09:54.978Z,83.60
2022-08-25T12:12:41.531Z,81.00
2022-08-25T12:15:31.239Z,79.80
2022-08-25T12:18:22.854Z,80.20
2022-08-25T12:20:56.307Z,77.10
2022-08-25T12:23:32.955Z,75.00
2022-08-25T12:26:19.790Z,74.00
2022-08-25T12:29:34.828Z,75.10
2022-08-25T12:32:38.178Z,77.20
2022-08-25T12:35:41.149Z,74.70
2022-08-25T12:38:27.323Z,75.00
2022-08-25T12:41:09.526Z,73.40
2022-08-25T12:43:47.382Z,73.30
2022-08-25T12:46:23.277Z,70.90
2022-08-25T12:49:24.545Z,71.70
2022-08-25T12:52:14.803Z,71.70
2022-08-25T12:54:54.606Z,76.10
2022-08-25T12:57:45.442Z,77.40
2022-08-25T13:07:01.337Z,76.40
2022-08-25T13:09:37.907Z,77.10
2022-08-25T13:12:17.682Z,75.70
2022-08-25T13:14:47.648Z,74.90
2022-08-25T13:17:33.993Z,77.60
2022-08-25T13:20:20.505Z,76.90
2022-08-25T13:22:56.838Z,78.60
2022-08-25T13:25:32.891Z,77.00
2022-08-25T13:28:05.239Z,79.80
2022-08-25T13:30:36.032Z,80.20
2022-08-25T13:33:21.948Z,77.70
2022-08-25T13:36:15.837Z,78.40
2022-08-25T13:38:46.610Z,77.50
2022-08-25T13:41:29.173Z,79.90
2022-08-25T13:44:00.919Z,80.40
2022-08-25T13:46:29.138Z,81.60
2022-08-25T13:49:06.834Z,84.10
2022-08-25T13:51:38.492Z,85.00
2022-08-25T13:54:09.364Z,83.00
2022-08-25T13:56:41.876Z,81.00
2022-08-25T13:59:32.821Z,79.00
2022-08-25T14:02:00.682Z,79.80
2022-08-25T14:04:51.083Z,81.70
2022-08-25T14:07:22.321Z,81.80
2022-08-25T14:09:55.207Z,80.50
2022-08-25T14:12:35.772Z,80.70
2022-08-25T14:15:16.846Z,77.50
2022-08-25T14:18:19.254Z,79.50
2022-08-25T14:20:50.992Z,77.20
2022-08-25T14:23:29.086Z,77.60
2022-08-25T14:25:58.430Z,76.40
2022-08-25T14:28:32.232Z,77.40
2022-08-25T14:31:08.986Z,78.20
2022-08-25T14:33:59.107Z,79.00
2022-08-25T14:36:29.608Z,79.80
2022-08-25T14:38:57.997Z,76.20
2022-08-25T14:41:26.866Z,74.50
2022-08-25T14:43:53.957Z,77.10
2022-08-25T14:46:25.862Z,78.00
2022-08-25T14:49:02.028Z,74.00
2022-08-25T14:51:32.572Z,75.80
2022-08-25T14:54:08.025Z,76.10
2022-08-25T14:56:36.858Z,75.60
2022-08-25T14:59:04.868Z,75.30
2022-08-25T15:01:32.042Z,73.70
2022-08-25T15:04:07.190Z,74.90
2022-08-25T15:06:36.779Z,76.30
2022-08-25T15:09:10.928Z,74.50
2022-08-25T15:11:45.382Z,71.20
2022-08-25T15:14:17.744Z,75.40
2022-08-25T15:16:50.177Z,75.00
2022-08-25T15:19:21.164Z,75.50
2022-08-25T15:21:51.527Z,70.90
2022-08-25T15:24:21.022Z,71.60
2022-08-25T15:27:00.975Z,69.50
2022-08-25T15:29:31.912Z,68.40
2022-08-25T15:32:00.846Z,62.80
2022-08-25T15:34:29.312Z,66.40
2022-08-25T15:36:58.476Z,60.20
2022-08-25T15:39:26.293Z,59.30
2022-08-25T15:41:53.341Z,60.60
2022-08-25T15:44:20.797Z,61.60
2022-08-25T15:46:50.053Z,61.40
2022-08-25T15:49:20.737Z,59.80
2022-08-25T15:51:55.264Z,59.30
2022-08-25T15:54:26.839Z,58.20
2022-08-25T15:56:56.732Z,59.20
2022-08-25T15:59:25.355Z,59.10
2022-08-25T16:01:53.573Z,58.90
2022-08-25T16:04:26.575Z,59.20
2022-08-25T16:06:55.646Z,60.30
2022-08-25T16:09:23.549Z,57.50
2022-08-25T16:11:55.639Z,60.40
2022-08-25T16:14:24.321Z,59.80
2022-08-25T16:16:52.579Z,62.30
2022-08-25T16:19:19.667Z,62.10
2022-08-25T16:21:47.238Z,62.70
2022-08-25T16:24:16.175Z,57.70
2022-08-25T16:26:48.042Z,60.00
2022-08-25T16:29:16.432Z,62.00
2022-08-25T16:31:44.870Z,62.50
2022-08-25T16:34:15.389Z,62.00
2022-08-25T16:36:42.293Z,64.00
2022-08-25T16:39:11.332Z,66.10
2022-08-25T16:41:39.289Z,65.00
2022-08-25T16:44:11.206Z,67.80
2022-08-25T16:46:40.816Z,70.90
2022-08-25T16:49:09.414Z,72.20
2022-08-25T16:51:38.590Z,74.00
2022-08-25T16:54:26.751Z,74.20
2022-08-25T16:56:54.743Z,76.30
2022-08-25T16:59:23.588Z,77.20
2022-08-25T17:01:51.741Z,78.30
2022-08-25T17:04:19.487Z,79.70
2022-08-25T17:06:49.651Z,79.60
2022-08-25T17:09:23.776Z,80.40
2022-08-25T17:11:54.491Z,82.70
2022-08-25T17:14:22.141Z,82.60
2022-08-25T17:16:51.204Z,83.50
2022-08-25T17:19:18.808Z,84.40
2022-08-25T17:21:49.880Z,84.80
2022-08-25T17:24:17.790Z,86.80
2022-08-25T17:26:47.229Z,88.60
2022-08-25T17:29:14.287Z,87.30
2022-08-25T17:31:43.998Z,88.30
2022-08-25T17:34:16.241Z,89.80
2022-08-25T17:36:45.313Z,90.20
2022-08-25T17:39:14.661Z,90.50
2022-08-25T17:41:44.007Z,91.10
2022-08-25T17:44:12.968Z,91.10
2022-08-25T17:46:47.553Z,91.60
2022-08-25T17:49:17.840Z,92.10
2022-08-25T17:51:45.351Z,92.50
2022-08-25T17:54:13.040Z,92.40
2022-08-25T17:56:40.450Z,92.70
2022-08-25T17:59:08.831Z,93.10
2022-08-25T18:01:40.790Z,93.20
2022-08-25T18:04:17.878Z,93.80
2022-08-25T18:06:49.386Z,94.20
2022-08-25T18:09:17.408Z,94.50
2022-08-25T18:11:45.876Z,94.70
2022-08-25T18:14:14.355Z,95.10
2022-08-25T18:16:42.248Z,95.40
2022-08-25T18:19:10.869Z,96.10
2022-08-25T18:21:38.673Z,96.30
2022-08-25T18:24:08.033Z,96.80
2022-08-25T18:26:35.491Z,97.30
2022-08-25T18:29:02.616Z,97.60
2022-08-25T18:31:29.654Z,97.90
2022-08-25T18:33:57.549Z,98.60
2022-08-25T18:36:24.616Z,98.90
2022-08-25T18:39:13.493Z,99.20
2022-08-25T18:41:42.669Z,99.60
2022-08-25T18:44:12.326Z,99.90
2022-08-25T18:46:42.688Z,99.90
2022-08-25T18:49:09.743Z,99.90
2022-08-25T18:51:37.545Z,99.90
2022-08-25T18:54:05.412Z,99.90
2022-08-25T18:56:34.183Z,99.90
2022-08-25T18:59:01.257Z,99.90
2022-08-25T19:01:28.619Z,99.90
2022-08-25T19:03:56.667Z,99.90
2022-08-25T19:06:24.001Z,99.90
2022-08-25T19:08:50.985Z,99.90
2022-08-25T19:11:22.173Z,99.90
2022-08-25T19:13:50.791Z,99.90
2022-08-25T19:16:35.759Z,99.90
2022-08-25T19:19:06.602Z,99.90
2022-08-25T19:21:35.423Z,99.90
2022-08-25T19:24:03.256Z,99.90
2022-08-25T19:26:31.631Z,99.90
2022-08-25T19:28:58.868Z,99.90
2022-08-25T19:31:27.765Z,99.90
2022-08-25T19:34:00.199Z,99.90
2022-08-25T19:36:30.054Z,99.90
2022-08-25T19:39:00.447Z,99.90
2022-08-25T19:41:31.145Z,99.90
2022-08-25T19:43:59.888Z,99.90
2022-08-25T19:46:35.303Z,99.90
2022-08-25T19:49:26.371Z,99.90
2022-08-25T19:51:55.757Z,99.90
2022-08-25T19:54:34.249Z,99.90
2022-08-25T19:57:02.663Z,99.90
2022-08-25T19:59:42.619Z,99.90
2022-08-25T20:02:15.899Z,99.90
2022-08-25T20:04:49.961Z,99.90
2022-08-25T20:07:20.100Z,99.90
2022-08-25T20:09:48.195Z,99.90
2022-08-25T20:14:42.921Z,99.90
2022-08-25T20:17:23.955Z,99.90
2022-08-25T20:19:58.731Z,99.90
2022-08-25T20:22:29.895Z,99.90
2022-08-25T20:25:00.206Z,99.90
2022-08-25T20:27:49.963Z,99.90
2022-08-25T20:30:23.217Z,99.90
2022-08-25T20:32:51.610Z,99.90
2022-08-25T20:35:26.362Z,99.90
2022-08-25T20:37:56.946Z,99.90
2022-08-25T20:40:27.894Z,99.90
2022-08-25T20:42:57.059Z,99.90
2022-08-25T20:45:24.467Z,99.90
2022-08-25T20:47:51.521Z,99.90
2022-08-25T20:50:20.574Z,99.90
2022-08-25T20:52:48.563Z,99.90
2022-08-25T20:55:18.992Z,99.90
2022-08-25T20:57:46.532Z,99.90
2022-08-25T21:00:14.366Z,99.90
2022-08-25T21:02:46.117Z,99.90
2022-08-25T21:05:13.575Z,99.90
2022-08-25T21:07:41.718Z,99.90
2022-08-25T21:10:14.130Z,99.90
2022-08-25T21:12:42.245Z,99.90
2022-08-25T21:15:11.122Z,99.90
2022-08-25T21:17:38.912Z,99.90
2022-08-25T21:20:08.530Z,99.90
2022-08-25T21:22:37.724Z,99.90
2022-08-25T21:25:05.731Z,99.90
2022-08-25T21:27:34.747Z,99.90
2022-08-25T21:30:01.812Z,99.90
2022-08-25T21:32:29.043Z,99.90
2022-08-25T21:34:56.805Z,99.90
2022-08-25T21:37:26.605Z,99.90
2022-08-25T21:39:54.359Z,99.90
2022-08-25T21:42:23.962Z,99.90
2022-08-25T21:44:52.642Z,99.90
2022-08-25T21:47:21.642Z,99.90
2022-08-25T21:49:50.783Z,99.90
2022-08-25T21:52:18.637Z,99.90
2022-08-25T21:54:46.335Z,99.90
2022-08-25T21:57:13.732Z,99.90
2022-08-25T21:59:43.679Z,99.90
2022-08-25T22:02:13.706Z,99.90
2022-08-25T22:04:42.077Z,99.90
2022-08-25T22:07:10.882Z,99.90
2022-08-25T22:09:39.060Z,99.90
2022-08-25T22:12:06.652Z,99.90
2022-08-25T22:14:35.559Z,99.90
2022-08-25T22:17:02.879Z,99.90
2022-08-25T22:19:29.967Z,99.90
2022-08-25T22:22:01.369Z,99.90
2022-08-25T22:24:28.633Z,99.90
2022-08-25T22:26:56.611Z,99.90
2022-08-25T22:29:25.393Z,99.90
2022-08-25T22:31:59.295Z,99.90
2022-08-25T22:34:32.447Z,99.90
2022-08-25T22:37:01.785Z,99.90
2022-08-25T22:39:32.125Z,99.90
2022-08-25T22:42:01.148Z,99.90
2022-08-25T22:44:28.126Z,99.90
2022-08-25T22:46:55.098Z,99.90
2022-08-25T22:49:22.147Z,99.90
2022-08-25T22:51:49.982Z,99.90
2022-08-25T22:54:18.061Z,99.90
2022-08-25T22:56:44.991Z,99.90
2022-08-25T22:59:14.227Z,99.90
2022-08-25T23:01:44.915Z,99.90
2022-08-25T23:04:12.472Z,99.90
2022-08-25T23:06:40.155Z,99.90
2022-08-25T23:09:09.408Z,99.90
2022-08-25T23:11:38.605Z,99.90
2022-08-25T23:14:10.196Z,99.90
2022-08-25T23:16:41.821Z,99.90
2022-08-25T23:19:11.307Z,99.90
2022-08-25T23:22:02.791Z,99.90
2022-08-25T23:24:31.089Z,99.90
2022-08-25T23:27:04.261Z,99.90
2022-08-25T23:29:34.080Z,99.90
2022-08-25T23:32:03.054Z,99.90
2022-08-25T23:34:30.807Z,99.90
2022-08-25T23:37:01.666Z,99.90
2022-08-25T23:39:30.739Z,99.90
2022-08-25T23:41:57.939Z,99.90
2022-08-25T23:44:25.674Z,99.90
2022-08-25T23:46:53.006Z,99.90
2022-08-25T23:49:23.414Z,99.90
2022-08-25T23:51:52.791Z,99.90
2022-08-25T23:54:21.165Z,99.90
2022-08-25T23:56:52.442Z,99.90
2022-08-25T23:59:24.155Z,99.90
